Time;durP1;ratioP1;P1;durP2;ratioP2;P2;SDS_P1;SDS_P2;PMS_P1;PMS_P2;Temp;Humidity;BMP_temperature;BMP_pressure;BME280_temperature;BME280_humidity;BME280_pressure;Samples;Min_cycle;Max_cycle;Signal;HPM_P1;HPM_P2
2021/07/15 00:01:54;;;;;;;17.55;12.50;;;;;;;18.62;97.91;101050.41;5076200;28;20045;-58
2021/07/15 00:04:23;;;;;;;15.77;12.15;;;;;;;18.61;97.93;101048.75;5057495;28;20052;-60
2021/07/15 00:06:51;;;;;;;19.65;12.85;;;;;;;18.62;98.04;101055.13;5075970;28;20053;-57
2021/07/15 00:09:19;;;;;;;18.90;12.85;;;;;;;18.62;97.93;101055.94;5077013;28;20060;-55
2021/07/15 00:11:48;;;;;;;17.65;13.38;;;;;;;18.61;97.94;101053.47;5078635;28;20041;-56
2021/07/15 00:14:19;;;;;;;19.98;14.60;;;;;;;18.61;98.10;101056.22;5094596;28;20071;-55
2021/07/15 00:16:51;;;;;;;17.88;13.80;;;;;;;18.61;97.92;101059.00;5079203;28;20064;-59
2021/07/15 00:19:19;;;;;;;21.67;15.18;;;;;;;18.60;97.83;101055.44;5079481;28;20044;-54
2021/07/15 00:21:46;;;;;;;21.27;14.20;;;;;;;18.59;98.14;101059.31;5078106;28;20041;-61
2021/07/15 00:24:17;;;;;;;21.30;15.20;;;;;;;18.58;97.90;101054.91;5076913;28;20040;-58
2021/07/15 00:26:45;;;;;;;21.50;14.55;;;;;;;18.59;98.09;101073.13;5076304;28;20041;-58
2021/07/15 00:29:13;;;;;;;19.52;13.80;;;;;;;18.58;97.81;101051.34;5075427;28;20036;-57
2021/07/15 00:31:41;;;;;;;19.95;14.10;;;;;;;18.57;97.90;101050.56;5074718;28;20403;-62
2021/07/15 00:34:09;;;;;;;16.88;13.52;;;;;;;18.56;97.96;101048.91;5077048;28;20453;-61
2021/07/15 00:36:36;;;;;;;18.23;13.68;;;;;;;18.57;97.83;101055.22;5077094;28;20102;-61
2021/07/15 00:39:06;;;;;;;16.65;12.55;;;;;;;18.56;97.93;101048.91;5074816;28;20067;-61
2021/07/15 00:41:35;;;;;;;17.13;12.27;;;;;;;18.55;98.00;101039.00;5073987;28;20517;-62
2021/07/15 00:44:03;;;;;;;16.80;11.88;;;;;;;18.56;97.98;101043.38;5073872;28;20044;-61
2021/07/15 00:46:30;;;;;;;13.77;10.18;;;;;;;18.55;97.68;101061.09;5074186;28;20052;-59
2021/07/15 00:48:58;;;;;;;16.27;11.43;;;;;;;18.55;97.80;101030.72;5074427;28;20491;-60
2021/07/15 00:51:30;;;;;;;16.40;12.15;;;;;;;18.54;98.08;101042.88;5074919;28;20041;-59
2021/07/15 00:53:58;;;;;;;14.93;11.50;;;;;;;18.53;97.92;101035.75;5074621;28;20131;-60
2021/07/15 00:56:27;;;;;;;15.00;12.00;;;;;;;18.52;97.63;101032.19;5074640;28;20041;-59
2021/07/15 00:58:55;;;;;;;13.45;10.65;;;;;;;18.51;97.81;101036.06;5074631;28;20131;-59
2021/07/15 01:01:23;;;;;;;15.63;11.35;;;;;;;18.52;97.68;101045.16;5074356;28;20036;-58
2021/07/15 01:03:51;;;;;;;14.32;10.23;;;;;;;18.50;97.76;101039.16;5074699;28;20050;-59
2021/07/15 01:06:19;;;;;;;16.10;11.52;;;;;;;18.48;97.77;101035.88;5074569;28;20051;-59
2021/07/15 01:08:49;;;;;;;13.82;10.02;;;;;;;18.48;98.04;101038.66;5074697;28;20070;-59
2021/07/15 01:11:25;;;;;;;17.10;12.35;;;;;;;18.48;97.95;101049.69;5074595;28;20068;-59
2021/07/15 01:14:06;;;;;;;13.35;11.57;;;;;;;18.47;97.89;101045.28;5074673;28;20051;-58
2021/07/15 01:17:00;;;;;;;16.05;11.32;;;;;;;18.48;97.93;101036.69;5074408;28;20702;-59
2021/07/15 01:19:36;;;;;;;14.80;12.07;;;;;;;18.48;97.63;101033.13;5090492;28;20135;-59
2021/07/15 01:22:17;;;;;;;15.52;11.98;;;;;;;18.47;97.80;101045.28;5074460;28;20048;-60
2021/07/15 01:25:21;;;;;;;16.15;11.40;;;;;;;18.46;97.71;101046.41;5073461;28;20048;-60
2021/07/15 01:27:56;;;;;;;17.77;12.75;;;;;;;18.43;97.75;101052.56;5074285;28;20051;-59
2021/07/15 01:30:27;;;;;;;15.82;11.45;;;;;;;18.44;97.89;101056.94;5073197;28;20060;-62
2021/07/15 01:33:15;;;;;;;16.98;12.07;;;;;;;18.43;97.76;101055.34;5054143;28;20040;-62
2021/07/15 01:35:50;;;;;;;16.58;12.43;;;;;;;18.42;97.77;101057.25;5060554;28;20098;-60
2021/07/15 01:38:19;;;;;;;18.08;12.88;;;;;;;18.42;97.64;101045.41;5077744;28;20119;-61
2021/07/15 01:40:55;;;;;;;15.20;11.55;;;;;;;18.43;97.63;101055.34;5058068;28;20044;-61
2021/07/15 01:43:45;;;;;;;17.75;13.35;;;;;;;18.42;97.57;101039.91;5056092;28;20491;-61
2021/07/15 01:46:14;;;;;;;18.50;12.20;;;;;;;18.41;97.62;101028.06;5074388;28;20048;-61
2021/07/15 01:48:43;;;;;;;16.25;12.88;;;;;;;18.43;97.50;101036.03;5056425;28;20410;-61
2021/07/15 01:51:11;;;;;;;18.02;12.80;;;;;;;18.43;97.53;101033.25;5056026;28;20048;-62
2021/07/15 01:53:39;;;;;;;15.85;11.90;;;;;;;18.41;97.33;101024.47;5073757;28;20040;-61
2021/07/15 01:56:08;;;;;;;15.88;11.23;;;;;;;18.40;97.17;101025.59;5055484;28;20050;-61
2021/07/15 01:58:37;;;;;;;14.35;10.85;;;;;;;18.38;97.16;101033.41;5056621;28;20123;-60
2021/07/15 02:01:07;;;;;;;17.98;11.38;;;;;;;18.37;97.04;101029.00;5056629;28;20044;-59
2021/07/15 02:03:39;;;;;;;16.48;11.73;;;;;;;18.36;97.03;101035.66;5073843;28;20041;-60
2021/07/15 02:06:08;;;;;;;15.43;12.68;;;;;;;18.33;96.98;101048.13;5055329;28;20106;-59
2021/07/15 02:08:36;;;;;;;16.52;12.18;;;;;;;18.31;96.95;101042.91;5054691;28;20049;-59
2021/07/15 02:11:05;;;;;;;17.60;12.55;;;;;;;18.26;97.27;101040.28;5055651;28;20048;-59
2021/07/15 02:13:33;;;;;;;16.15;12.65;;;;;;;18.26;97.34;101036.72;5055834;28;20052;-62
2021/07/15 02:16:01;;;;;;;16.50;12.52;;;;;;;18.26;97.59;101043.06;5056036;28;20495;-61
2021/07/15 02:18:29;;;;;;;15.43;11.40;;;;;;;18.24;97.55;101058.28;5055960;28;20051;-60
2021/07/15 02:20:57;;;;;;;16.48;12.55;;;;;;;18.25;97.54;101063.47;5047428;28;20041;-60
2021/07/15 02:23:27;;;;;;;14.10;10.77;;;;;;;18.26;97.57;101062.38;5049667;28;20079;-59
2021/07/15 02:25:56;;;;;;;12.25;10.30;;;;;;;18.24;97.49;101064.63;5073508;28;20056;-62
2021/07/15 02:28:25;;;;;;;13.38;9.85;;;;;;;18.24;97.54;101061.84;5055088;28;20049;-60
2021/07/15 02:31:13;;;;;;;14.10;9.57;;;;;;;18.23;97.62;101059.41;5055671;28;20531;-60
2021/07/15 02:33:49;;;;;;;11.20;9.63;;;;;;;18.24;97.42;101063.81;5055673;28;20068;-61
2021/07/15 02:36:17;;;;;;;;;;;;;;;18.23;97.45;101060.25;5072587;28;20040;-62
2021/07/15 02:38:47;;;;;;;13.55;9.77;;;;;;;18.23;97.41;101065.75;5054267;28;19930;-61
2021/07/15 02:41:14;;;;;;;13.43;9.38;;;;;;;18.24;97.44;101064.63;5054764;28;20055;-62
2021/07/15 02:43:42;;;;;;;13.15;10.13;;;;;;;18.26;97.29;101053.28;5054327;28;20076;-62
2021/07/15 02:46:10;;;;;;;17.63;11.82;;;;;;;18.25;97.36;101057.97;5072127;28;20044;-62
2021/07/15 02:48:37;;;;;;;16.20;12.15;;;;;;;18.23;97.10;101060.25;5072631;28;20067;-61
2021/07/15 02:51:05;;;;;;;15.13;11.93;;;;;;;18.25;97.14;101057.97;5075055;28;20040;-64
2021/07/15 02:53:32;;;;;;;17.40;12.57;;;;;;;18.25;97.35;101057.97;5075844;28;20049;-56
2021/07/15 02:56:26;;;;;;;16.70;12.35;;;;;;;18.27;97.42;101063.16;5075511;28;20048;-61
2021/07/15 02:59:02;;;;;;;20.55;13.15;;;;;;;18.24;97.59;101050.81;4971280;28;20047;-58
2021/07/15 03:01:36;;;;;;;21.40;13.85;;;;;;;18.24;97.27;101053.59;4971437;28;20047;-60
2021/07/15 03:04:26;;;;;;;19.25;14.57;;;;;;;18.22;97.24;101064.13;4970530;28;20048;-58
2021/07/15 03:06:54;;;;;;;21.25;14.63;;;;;;;18.24;97.08;101070.13;4970041;28;20551;-61
2021/07/15 03:09:28;;;;;;;21.05;15.05;;;;;;;18.23;97.17;101060.25;4970548;28;20059;-61
2021/07/15 03:12:01;;;;;;;20.77;14.00;;;;;;;18.24;97.20;101064.63;4960615;28;20461;-61
2021/07/15 03:14:33;;;;;;;20.17;14.38;;;;;;;18.22;97.08;101075.16;4973137;28;20095;-61
2021/07/15 03:17:02;;;;;;;19.20;14.18;;;;;;;18.21;97.24;101070.78;4960854;28;20074;-59
2021/07/15 03:19:32;;;;;;;19.10;13.00;;;;;;;18.22;97.31;101071.56;4973306;28;20050;-61
2021/07/15 03:22:02;;;;;;;18.95;13.13;;;;;;;18.22;97.09;101077.09;4971518;28;20042;-61
2021/07/15 03:24:32;;;;;;;20.73;13.45;;;;;;;18.21;97.00;101084.56;4976584;28;20049;-61
2021/07/15 03:27:03;;;;;;;18.73;13.02;;;;;;;18.21;96.86;101092.03;4959709;28;20055;-61
2021/07/15 03:29:32;;;;;;;19.40;12.35;;;;;;;18.20;96.89;101099.47;4976692;28;20043;-59
2021/07/15 03:32:04;;;;;;;18.92;12.73;;;;;;;18.19;96.99;101086.81;4976525;28;20158;-61
2021/07/15 03:34:33;;;;;;;16.10;12.30;;;;;;;18.19;97.00;101073.03;4967642;28;20043;-61
2021/07/15 03:37:02;;;;;;;15.00;11.70;;;;;;;18.19;96.96;101075.78;5070689;28;20104;-61
2021/07/15 03:39:31;;;;;;;16.75;11.52;;;;;;;18.17;96.65;101078.03;5076774;28;20513;-59
2021/07/15 03:41:59;;;;;;;15.65;11.57;;;;;;;18.18;96.91;101078.84;5077203;28;20406;-59
2021/07/15 03:44:27;;;;;;;13.63;10.63;;;;;;;18.16;96.91;101079.16;5059425;28;20037;-60
2021/07/15 03:46:54;;;;;;;14.90;10.40;;;;;;;18.19;96.88;101091.53;5055707;28;20473;-61
2021/07/15 03:49:24;;;;;;;15.30;10.80;;;;;;;18.17;96.88;101078.03;5058080;28;20045;-61
2021/07/15 03:51:52;;;;;;;13.95;9.63;;;;;;;18.16;96.84;101079.16;5076757;28;20680;-59
2021/07/15 03:54:23;;;;;;;13.85;10.18;;;;;;;18.17;97.04;101094.56;5075572;28;20079;-59
2021/07/15 03:56:51;;;;;;;13.65;9.30;;;;;;;18.17;96.99;101089.06;5076085;28;20049;-60
2021/07/15 03:59:20;;;;;;;11.70;8.68;;;;;;;18.16;96.87;101098.47;5076528;28;20043;-62
2021/07/15 04:02:02;;;;;;;13.40;8.77;;;;;;;18.14;96.81;101086.94;5055896;28;20128;-59
2021/07/15 04:04:31;;;;;;;11.48;8.25;;;;;;;18.14;97.00;101100.72;5067961;28;20036;-61
2021/07/15 04:07:02;;;;;;;11.10;7.97;;;;;;;18.14;96.63;101102.69;5075995;28;20132;-59
2021/07/15 04:09:31;;;;;;;10.95;8.00;;;;;;;18.10;96.66;101095.00;5067617;28;20056;-59
2021/07/15 04:12:00;;;;;;;11.70;7.57;;;;;;;18.12;96.79;101091.94;5055314;28;20043;-59
2021/07/15 04:15:00;;;;;;;11.35;6.93;;;;;;;18.12;96.41;101085.63;5058119;28;20499;-59
2021/07/15 04:17:32;;;;;;;10.00;6.60;;;;;;;18.10;96.27;101099.72;5066283;28;20036;-62
2021/07/15 04:20:02;;;;;;;10.15;7.00;;;;;;;18.07;96.15;101116.88;5055265;28;20036;-59
2021/07/15 04:22:31;;;;;;;11.38;7.28;;;;;;;18.09;96.26;101122.91;5068593;28;20048;-60
2021/07/15 04:24:59;;;;;;;10.23;6.85;;;;;;;18.09;96.32;101111.88;5053903;28;20415;-59
2021/07/15 04:27:28;;;;;;;10.30;7.35;;;;;;;18.10;96.43;101111.56;5058655;28;20064;-59
2021/07/15 04:30:01;;;;;;;11.32;7.00;;;;;;;18.09;96.03;101104.41;5075904;28;20373;-59
2021/07/15 04:32:55;;;;;;;10.13;7.18;;;;;;;18.06;95.99;101113.31;5075450;28;20052;-59
2021/07/15 04:35:26;;;;;;;10.60;7.10;;;;;;;18.06;96.17;101115.25;5057381;28;20053;-59
2021/07/15 04:37:53;;;;;;;10.68;7.00;;;;;;;18.06;96.26;101109.72;5054059;28;20051;-59
2021/07/15 04:40:24;;;;;;;11.55;7.45;;;;;;;18.06;96.16;101115.25;5056528;28;20057;-59
2021/07/15 04:42:54;;;;;;;10.45;7.20;;;;;;;18.06;96.10;101126.28;5075391;28;20041;-59
2021/07/15 04:45:25;;;;;;;10.23;6.78;;;;;;;18.06;96.21;101120.75;5056893;28;20049;-61
2021/07/15 04:47:55;;;;;;;11.43;6.60;;;;;;;18.07;96.04;101127.91;5075530;28;20486;-61
2021/07/15 04:50:26;;;;;;;9.05;6.55;;;;;;;18.04;95.98;101134.88;5057014;28;20045;-61
2021/07/15 04:52:57;;;;;;;10.07;6.47;;;;;;;18.04;95.98;101128.56;5075424;28;20032;-61
2021/07/15 04:55:25;;;;;;;10.32;6.38;;;;;;;18.05;96.03;101121.91;5057153;28;20044;-61
2021/07/15 04:57:54;;;;;;;8.43;5.70;;;;;;;18.06;96.29;101129.03;5053921;28;20045;-61
2021/07/15 05:00:22;;;;;;;9.05;6.18;;;;;;;18.06;95.93;101126.28;5056094;28;20534;-61
2021/07/15 05:03:23;;;;;;;11.65;6.70;;;;;;;18.05;96.07;101127.41;5053810;28;20048;-59
2021/07/15 05:05:50;;;;;;;8.85;6.30;;;;;;;18.02;96.03;101156.44;5027269;28;20407;-61
2021/07/15 05:08:18;;;;;;;10.57;7.00;;;;;;;18.03;96.29;101130.47;5072186;28;20445;-62
2021/07/15 05:10:46;;;;;;;10.02;6.72;;;;;;;18.05;96.43;101135.69;5074435;28;20058;-61
2021/07/15 05:13:14;;;;;;;8.93;6.05;;;;;;;18.02;96.20;101133.56;5054430;28;20037;-53
2021/07/15 05:15:42;;;;;;;9.10;6.28;;;;;;;18.03;96.49;101132.41;5073783;28;20049;-55
2021/07/15 05:18:09;;;;;;;9.40;6.00;;;;;;;18.04;96.50;101134.06;5073908;28;20047;-53
2021/07/15 05:20:37;;;;;;;8.65;5.70;;;;;;;18.02;96.25;101130.81;5074070;28;20051;-55
2021/07/15 05:23:04;;;;;;;8.65;5.65;;;;;;;18.02;96.50;101133.56;5051819;28;20052;-54
2021/07/15 05:25:32;;;;;;;8.23;5.70;;;;;;;18.04;96.50;101131.31;5073501;28;20045;-56
2021/07/15 05:27:59;;;;;;;8.98;5.70;;;;;;;18.03;96.34;101140.69;5069420;28;20049;-56
2021/07/15 05:30:27;;;;;;;8.80;5.90;;;;;;;18.02;96.45;101128.03;5063949;28;20064;-56
2021/07/15 05:32:54;;;;;;;9.80;5.72;;;;;;;18.00;96.38;101138.56;5071858;28;20127;-56
2021/07/15 05:35:22;;;;;;;13.27;6.25;;;;;;;18.00;96.72;101135.81;5070353;28;20048;-56
2021/07/15 05:37:50;;;;;;;10.60;6.18;;;;;;;18.00;96.60;101131.09;5072383;28;20048;-58
2021/07/15 05:40:18;;;;;;;9.98;6.28;;;;;;;17.98;96.57;101146.31;5072382;28;20037;-57
2021/07/15 05:42:45;;;;;;;9.77;6.25;;;;;;;17.94;96.62;101146.13;5052675;28;20032;-52
2021/07/15 05:45:13;;;;;;;8.93;5.63;;;;;;;17.94;96.33;101139.78;4365220;28;10000806;-55
2021/07/15 05:47:40;;;;;;;12.43;6.10;;;;;;;17.94;96.73;101142.53;5071481;28;20051;-52
2021/07/15 05:50:08;;;;;;;11.80;6.47;;;;;;;17.90;96.79;101155.34;5070511;28;20058;-52
2021/07/15 05:52:36;;;;;;;8.45;5.43;;;;;;;17.92;96.91;101148.38;5070686;28;20036;-56
2021/07/15 05:55:11;;;;;;;10.35;6.22;;;;;;;17.91;96.69;101168.78;5070914;28;20123;-55
2021/07/15 05:57:39;;;;;;;10.85;6.43;;;;;;;17.87;97.15;101167.78;5070674;28;20054;-54
2021/07/15 06:00:09;;;;;;;10.10;6.40;;;;;;;17.85;97.56;101164.53;5072191;28;20511;-58
2021/07/15 06:02:37;;;;;;;10.77;6.75;;;;;;;17.88;97.90;101169.41;5070808;28;20398;-55
2021/07/15 06:05:24;;;;;;;10.40;5.63;;;;;;;17.91;97.49;101173.50;5070386;28;20052;-55
2021/07/15 06:07:52;;;;;;;10.23;6.38;;;;;;;17.91;97.77;101176.25;5070515;28;20410;-54
2021/07/15 06:10:20;;;;;;;43.42;9.75;;;;;;;17.90;97.50;101188.41;5070308;28;20044;-55
2021/07/15 06:12:47;;;;;;;79.18;13.75;;;;;;;17.91;97.68;101185.34;5071176;28;20048;-55
2021/07/15 06:15:15;;;;;;;285.42;33.67;;;;;;;17.88;97.90;101178.50;5063984;28;20040;-51
2021/07/15 06:17:43;;;;;;;96.38;16.65;;;;;;;17.88;97.95;101189.53;5070405;28;20059;-53
2021/07/15 06:20:21;;;;;;;46.35;10.43;;;;;;;17.86;97.70;101188.22;5063685;28;20044;-56
2021/07/15 06:22:48;;;;;;;48.08;12.85;;;;;;;17.90;98.10;101188.41;5070978;28;20390;-56
2021/07/15 06:25:16;;;;;;;20.48;9.27;;;;;;;17.88;98.14;101194.22;5070616;28;20044;-56
2021/07/15 06:27:44;;;;;;;12.57;8.20;;;;;;;17.84;98.38;101202.28;5070340;28;20056;-56
2021/07/15 06:30:13;;;;;;;14.32;9.60;;;;;;;17.82;98.52;101199.03;5071646;28;20043;-53
2021/07/15 06:32:41;;;;;;;13.88;8.75;;;;;;;17.84;98.74;101205.03;5069889;28;20037;-57
2021/07/15 06:35:15;;;;;;;15.38;8.20;;;;;;;17.88;98.94;101199.75;5068877;28;20040;-58
2021/07/15 06:37:47;;;;;;;13.38;8.40;;;;;;;17.89;98.55;101204.13;5069569;28;20094;-59
2021/07/15 06:40:15;;;;;;;13.82;8.50;;;;;;;17.87;98.78;101201.69;5050407;28;20049;-58
2021/07/15 06:42:42;;;;;;;43.47;12.55;;;;;;;17.90;98.81;101210.47;5070100;28;20048;-57
2021/07/15 06:45:10;;;;;;;31.42;11.15;;;;;;;17.91;98.62;101212.91;5069140;28;20040;-57
2021/07/15 06:47:38;;;;;;;27.80;10.60;;;;;;;17.89;98.74;101204.13;5068927;28;20090;-57
2021/07/15 06:50:08;;;;;;;20.70;10.40;;;;;;;17.88;98.85;101222.59;5069182;28;20048;-58
2021/07/15 06:52:36;;;;;;;19.63;11.52;;;;;;;17.85;98.84;101214.97;5070214;28;20053;-57
2021/07/15 06:55:05;;;;;;;25.02;12.52;;;;;;;17.84;99.00;101224.34;5049175;28;20502;-57
2021/07/15 06:57:35;;;;;;;19.65;11.10;;;;;;;17.86;99.17;101232.31;5072482;28;20048;-59
2021/07/15 07:00:15;;;;;;;33.10;12.77;;;;;;;17.87;99.03;101229.25;5073972;28;20037;-59
2021/07/15 07:02:44;;;;;;;24.30;12.32;;;;;;;17.91;98.95;101237.72;5049420;28;20048;-60
2021/07/15 07:05:12;;;;;;;23.25;12.77;;;;;;;17.92;98.93;101235.78;5073805;28;20044;-60
2021/07/15 07:07:46;;;;;;;23.90;13.30;;;;;;;17.90;98.90;101238.84;5052222;28;20049;-57
2021/07/15 07:10:14;;;;;;;21.98;12.52;;;;;;;17.91;98.50;101239.66;5069194;28;20051;-58
2021/07/15 07:12:42;;;;;;;25.58;13.45;;;;;;;17.91;98.54;101247.94;5062167;28;20037;-59
2021/07/15 07:15:13;;;;;;;22.08;14.52;;;;;;;17.90;98.60;101255.41;5072907;28;20041;-57
2021/07/15 07:17:41;;;;;;;21.92;13.77;;;;;;;17.86;98.80;101254.38;5072960;28;20044;-57
2021/07/15 07:20:10;;;;;;;21.80;14.27;;;;;;;17.86;98.92;101259.88;5072886;28;20131;-58
2021/07/15 07:22:39;;;;;;;21.33;13.43;;;;;;;17.85;99.12;101250.78;5074012;28;20044;-57
2021/07/15 07:25:08;;;;;;;16.63;10.85;;;;;;;17.80;98.67;101245.38;5073481;28;20400;-57
2021/07/15 07:27:38;;;;;;;19.23;10.60;;;;;;;17.81;98.88;101241.50;5074523;28;20076;-55
2021/07/15 07:30:07;;;;;;;17.10;9.90;;;;;;;17.88;98.52;101249.38;5073390;28;20048;-57
2021/07/15 07:32:35;;;;;;;76.38;16.80;;;;;;;17.84;98.33;101262.13;5072352;28;20059;-57
2021/07/15 07:35:06;;;;;;;54.78;13.25;;;;;;;17.83;98.55;101261.31;5073002;28;20066;-56
2021/07/15 07:37:34;;;;;;;23.00;10.25;;;;;;;17.86;98.66;101263.44;5052412;28;20057;-56
2021/07/15 07:40:05;;;;;;;15.43;8.48;;;;;;;17.87;98.72;101265.09;5069797;28;20041;-56
2021/07/15 07:42:32;;;;;;;14.73;8.13;;;;;;;17.88;98.28;101258.44;5069990;28;20220;-57
2021/07/15 07:45:00;;;;;;;11.45;7.30;;;;;;;17.83;97.94;101266.81;5069228;28;20048;-57
2021/07/15 07:47:28;;;;;;;11.73;7.28;;;;;;;17.82;98.08;101264.34;5072917;28;20068;-56
2021/07/15 07:49:55;;;;;;;11.65;6.82;;;;;;;17.82;98.10;101267.97;5073837;28;20040;-58
2021/07/15 07:52:23;;;;;;;13.38;7.47;;;;;;;17.83;98.21;101266.81;5072957;28;20049;-55
2021/07/15 07:54:50;;;;;;;12.82;8.10;;;;;;;17.80;97.50;101274.88;5073871;28;20368;-58
2021/07/15 07:57:18;;;;;;;13.13;8.30;;;;;;;17.80;97.63;101267.44;5073981;28;20067;-55
2021/07/15 07:59:45;;;;;;;12.18;8.73;;;;;;;17.80;97.46;101267.44;5074245;28;20048;-58
2021/07/15 08:02:13;;;;;;;14.10;9.40;;;;;;;17.81;97.52;101269.06;5073105;28;20402;-58
2021/07/15 08:04:41;;;;;;;14.73;9.23;;;;;;;17.81;97.61;101282.84;5072777;28;20041;-57
2021/07/15 08:07:13;;;;;;;16.50;9.02;;;;;;;17.83;97.69;101271.53;5071880;28;20052;-58
2021/07/15 08:09:45;;;;;;;15.00;9.98;;;;;;;17.83;97.72;101277.03;5067169;28;20048;-57
2021/07/15 08:12:17;;;;;;;14.55;9.63;;;;;;;17.82;97.69;101276.22;5064340;28;20526;-58
2021/07/15 08:14:45;;;;;;;13.65;9.10;;;;;;;17.84;97.61;101284.97;5072797;28;20040;-56
2021/07/15 08:17:14;;;;;;;14.73;8.73;;;;;;;17.82;97.55;101292.75;5073245;28;20052;-58
2021/07/15 08:19:42;;;;;;;15.90;8.13;;;;;;;17.84;97.72;101293.25;5073036;28;20372;-56
2021/07/15 08:22:09;;;;;;;16.08;8.52;;;;;;;17.83;97.61;101299.09;5072442;28;20047;-57
2021/07/15 08:24:37;;;;;;;15.50;8.15;;;;;;;17.82;97.74;101309.31;5072528;28;20506;-57
2021/07/15 08:27:05;;;;;;;12.85;8.13;;;;;;;17.82;97.39;101297.44;5071878;28;20146;-56
2021/07/15 08:29:32;;;;;;;18.77;8.15;;;;;;;17.81;97.54;101304.91;5071928;28;20060;-58
2021/07/15 08:32:00;;;;;;;14.52;8.75;;;;;;;17.79;97.62;101304.34;5072441;28;20039;-57
2021/07/15 08:34:28;;;;;;;12.88;8.60;;;;;;;17.78;97.46;101307.44;5073595;28;20525;-56
2021/07/15 08:36:55;;;;;;;16.42;8.35;;;;;;;17.82;97.83;101314.81;5074532;28;20152;-57
2021/07/15 08:39:24;;;;;;;13.65;8.23;;;;;;;17.83;97.73;101312.88;5074644;28;20052;-58
2021/07/15 08:41:52;;;;;;;20.15;10.52;;;;;;;17.80;97.16;101305.19;5074461;28;20060;-57
2021/07/15 08:44:21;;;;;;;17.65;9.60;;;;;;;17.77;97.20;101309.34;5048762;28;20048;-56
2021/07/15 08:46:49;;;;;;;15.32;9.15;;;;;;;17.81;97.49;101312.34;5074605;28;20040;-57
2021/07/15 08:49:19;;;;;;;18.27;8.95;;;;;;;17.79;97.28;101312.63;5074589;28;20041;-54
2021/07/15 08:51:48;;;;;;;15.95;9.43;;;;;;;17.80;97.63;101317.06;5074953;28;20044;-57
2021/07/15 08:54:17;;;;;;;17.02;9.52;;;;;;;17.79;97.73;101325.59;5074229;28;20517;-56
2021/07/15 08:56:47;;;;;;;14.70;8.38;;;;;;;17.75;98.13;101325.41;5073067;28;20040;-55
2021/07/15 08:59:17;;;;;;;16.10;8.73;;;;;;;17.76;98.26;101320.69;5073275;28;20052;-52
2021/07/15 09:01:47;;;;;;;14.18;7.28;;;;;;;17.74;97.67;101326.50;5053215;28;20036;-55
2021/07/15 09:04:17;;;;;;;12.68;7.18;;;;;;;17.74;97.66;101334.78;5072496;28;20490;-56
2021/07/15 09:06:45;;;;;;;11.65;6.82;;;;;;;17.72;97.46;101334.25;5052616;28;20059;-53
2021/07/15 09:09:13;;;;;;;11.27;6.30;;;;;;;17.68;97.27;101347.03;5071678;28;20052;-52
2021/07/15 09:11:42;;;;;;;9.70;5.70;;;;;;;17.65;97.46;101342.09;5050343;28;20045;-54
2021/07/15 09:14:22;;;;;;;10.02;5.95;;;;;;;17.66;97.69;101343.75;5072227;28;20056;-57
2021/07/15 09:16:53;;;;;;;9.65;6.03;;;;;;;17.66;97.53;101354.78;5075684;28;20136;-56
2021/07/15 09:19:24;;;;;;;13.45;7.03;;;;;;;17.67;97.28;101357.22;5075007;28;20116;-56
2021/07/15 09:21:52;;;;;;;14.77;8.05;;;;;;;17.67;96.90;101359.97;5075650;28;20071;-56
2021/07/15 09:24:32;;;;;;;14.23;8.60;;;;;;;17.64;96.90;101368.84;5075617;28;20047;-57
2021/07/15 09:27:24;;;;;;;17.15;10.20;;;;;;;17.65;97.03;101367.75;5075809;28;20475;-56
2021/07/15 09:30:11;;;;;;;19.58;10.90;;;;;;;17.62;96.53;101362.81;5075090;28;20044;-55
2021/07/15 09:32:54;;;;;;;19.92;9.50;;;;;;;17.64;96.57;101359.75;5074477;28;20048;-56
2021/07/15 09:35:44;;;;;;;18.02;10.55;;;;;;;17.60;96.57;101367.00;5072802;28;20041;-56
2021/07/15 09:38:15;;;;;;;19.98;10.80;;;;;;;17.59;96.53;101366.19;5072173;28;20041;-56
2021/07/15 09:40:44;;;;;;;17.98;10.77;;;;;;;17.59;96.58;101368.13;5072414;28;20063;-55
2021/07/15 09:43:13;;;;;;;20.85;10.80;;;;;;;17.57;96.72;101362.91;5064998;28;20063;-52
2021/07/15 09:45:41;;;;;;;23.75;11.88;;;;;;;17.58;96.72;101370.06;5072585;28;20052;-55
2021/07/15 09:48:19;;;;;;;21.35;10.95;;;;;;;17.57;96.80;101357.41;5051793;28;20136;-53
2021/07/15 09:50:49;;;;;;;22.23;11.23;;;;;;;17.60;96.67;101355.97;5050913;28;20118;-50
2021/07/15 09:53:33;;;;;;;19.15;10.75;;;;;;;17.65;97.16;101366.91;5053096;28;20132;-57
2021/07/15 09:56:16;;;;;;;23.10;11.57;;;;;;;17.67;96.96;101370.19;5050571;28;20052;-56
2021/07/15 09:58:48;;;;;;;19.52;10.48;;;;;;;17.68;97.02;101374.59;5065854;28;20558;-55
2021/07/15 10:01:44;;;;;;;20.17;10.65;;;;;;;17.69;97.12;101376.22;5049791;28;20041;-54
2021/07/15 10:04:12;;;;;;;21.65;11.65;;;;;;;17.66;96.96;101383.16;5051830;28;20055;-56
2021/07/15 10:06:45;;;;;;;21.30;11.98;;;;;;;17.61;96.98;101386.00;5071706;28;20068;-55
2021/07/15 10:09:26;;;;;;;23.48;12.27;;;;;;;17.56;96.65;101372.31;5071634;28;20123;-56
2021/07/15 10:11:56;;;;;;;21.23;11.15;;;;;;;17.54;96.46;101379.25;5056123;28;20128;-56
2021/07/15 10:14:39;;;;;;;17.98;10.45;;;;;;;17.54;96.48;101379.25;5071838;28;20059;-54
2021/07/15 10:17:08;;;;;;;21.25;10.63;;;;;;;17.53;96.38;101385.84;5038847;28;20538;-57
2021/07/15 10:19:36;;;;;;;19.33;10.93;;;;;;;17.51;96.04;101382.56;5072303;28;20399;-56
2021/07/15 10:22:10;;;;;;;18.52;9.93;;;;;;;17.48;96.38;101396.97;5050822;28;20067;-54
2021/07/15 10:24:38;;;;;;;20.95;10.35;;;;;;;17.50;96.76;101390.03;5065347;28;20044;-56
2021/07/15 10:27:10;;;;;;;19.08;9.68;;;;;;;17.54;96.52;101387.50;5071590;28;20052;-55
2021/07/15 10:29:39;;;;;;;17.45;9.02;;;;;;;17.56;96.56;101388.84;5072569;28;20049;-57
2021/07/15 10:32:08;;;;;;;17.65;9.40;;;;;;;17.59;96.20;101384.66;5075133;28;20064;-56
2021/07/15 10:34:39;;;;;;;21.08;9.00;;;;;;;17.65;96.67;101381.53;5076409;28;20033;-52
2021/07/15 10:37:07;;;;;;;15.95;9.32;;;;;;;17.64;95.58;101384.56;5075961;28;20114;-52
2021/07/15 10:39:37;;;;;;;18.67;9.57;;;;;;;17.66;96.26;101383.16;5054938;28;20052;-49
2021/07/15 10:42:06;;;;;;;18.85;9.35;;;;;;;17.69;96.38;101395.50;5072526;28;20473;-53
2021/07/15 10:44:34;;;;;;;19.05;10.60;;;;;;;17.66;95.47;101399.69;5075828;28;20052;-53
2021/07/15 10:47:03;;;;;;;17.33;9.63;;;;;;;17.65;96.14;101403.56;5076235;28;20052;-55
2021/07/15 10:49:31;;;;;;;16.67;8.60;;;;;;;17.68;96.00;101407.66;5054286;28;20052;-52
2021/07/15 10:52:01;;;;;;;14.15;8.65;;;;;;;17.67;96.40;101412.31;5071880;28;20044;-52
2021/07/15 10:54:29;;;;;;;16.75;8.30;;;;;;;17.65;96.35;101413.75;5057911;28;20139;-53
2021/07/15 10:56:57;;;;;;;15.38;8.52;;;;;;;17.65;96.07;101414.59;5037652;28;20049;-52
2021/07/15 10:59:30;;;;;;;15.40;8.65;;;;;;;17.58;95.71;101414.16;5057223;28;20406;-52
2021/07/15 11:02:02;;;;;;;16.60;9.20;;;;;;;17.59;95.96;101426.00;5075515;28;20052;-49
2021/07/15 11:04:39;;;;;;;13.98;8.50;;;;;;;17.61;96.36;101407.22;5068208;28;20110;-54
2021/07/15 11:07:24;;;;;;;13.23;8.40;;;;;;;17.61;96.40;101424.56;5075218;28;20043;-52
2021/07/15 11:09:54;;;;;;;14.18;8.07;;;;;;;17.63;96.17;101422.34;5074431;28;20079;-53
2021/07/15 11:12:55;;;;;;;13.98;7.90;;;;;;;17.63;95.85;101422.34;5056754;28;20115;-52
2021/07/15 11:15:23;;;;;;;14.82;7.40;;;;;;;17.64;96.08;101425.91;5075289;28;20043;-53
2021/07/15 11:17:52;;;;;;;18.48;9.40;;;;;;;17.60;95.82;101422.09;5053989;28;20052;-52
2021/07/15 11:20:31;;;;;;;11.55;8.15;;;;;;;17.57;95.80;101422.72;5073375;28;20040;-53
2021/07/15 11:23:19;;;;;;;16.50;8.35;;;;;;;17.59;96.20;101428.75;5075161;28;20059;-53
2021/07/15 11:25:46;;;;;;;14.45;8.65;;;;;;;17.56;95.94;101432.13;5047909;28;20044;-52
2021/07/15 11:28:15;;;;;;;16.27;8.45;;;;;;;17.55;95.83;101436.78;5056875;28;20044;-52
2021/07/15 11:30:45;;;;;;;14.48;8.70;;;;;;;17.55;95.91;101441.47;5075460;28;20049;-54
2021/07/15 11:33:21;;;;;;;16.27;9.10;;;;;;;17.56;96.28;101443.13;5076384;28;20039;-49